createdAt,value
2024-01-18T00:01:54.331Z,98670.28
2024-01-18T00:04:20.861Z,98675.28
2024-01-18T00:06:47.507Z,98670.75
2024-01-18T00:09:13.983Z,98677.78
2024-01-18T00:11:40.411Z,98666.53
2024-01-18T00:14:06.818Z,98698.81
2024-01-18T00:16:35.037Z,98705.25
2024-01-18T00:19:02.129Z,98710.69
2024-01-18T00:21:28.826Z,98716.28
2024-01-18T00:23:55.289Z,98723.72
2024-01-18T00:26:21.676Z,98734.97
2024-01-18T00:28:48.072Z,98745.41
2024-01-18T00:31:14.720Z,98751.00
2024-01-18T00:33:41.144Z,98749.38
2024-01-18T00:36:07.633Z,98761.72
2024-01-18T00:38:34.106Z,98753.16
2024-01-18T00:41:00.490Z,98766.13
2024-01-18T00:43:26.869Z,98759.91
2024-01-18T00:45:53.224Z,98742.66
2024-01-18T00:48:19.714Z,98734.81
2024-01-18T00:50:46.168Z,98742.88
2024-01-18T00:53:12.641Z,98759.63
2024-01-18T00:55:38.970Z,98793.25
2024-01-18T00:58:05.351Z,98791.53
2024-01-18T01:00:32.058Z,98777.19
2024-01-18T01:02:58.833Z,98771.25
2024-01-18T01:05:25.278Z,98767.69
2024-01-18T01:07:52.158Z,98766.03
2024-01-18T01:10:18.559Z,98782.41
2024-01-18T01:12:44.930Z,98797.78
2024-01-18T01:15:11.419Z,98788.53
2024-01-18T01:17:40.647Z,98791.31
2024-01-18T01:20:10.667Z,98775.81
2024-01-18T01:22:37.234Z,98784.69
2024-01-18T01:25:03.744Z,98787.91
2024-01-18T01:27:30.179Z,98782.69
2024-01-18T01:29:56.638Z,98786.47
2024-01-18T01:32:23.111Z,98781.84
2024-01-18T01:34:49.574Z,98800.19
2024-01-18T01:37:15.987Z,98800.28
2024-01-18T01:39:42.346Z,98798.88
2024-01-18T01:42:09.824Z,98809.16
2024-01-18T01:44:36.200Z,98813.78
2024-01-18T01:47:02.622Z,98822.75
2024-01-18T01:49:29.224Z,98814.88
2024-01-18T01:51:56.408Z,98809.34
2024-01-18T01:54:24.685Z,98822.13
2024-01-18T01:56:54.278Z,98816.28
2024-01-18T01:59:21.874Z,98818.66
2024-01-18T02:01:49.243Z,98827.78
2024-01-18T02:04:15.887Z,98836.69
2024-01-18T02:06:43.745Z,98832.69
2024-01-18T02:09:12.307Z,98847.28
2024-01-18T02:11:38.820Z,98851.56
2024-01-18T02:14:05.203Z,98851.22
2024-01-18T02:16:33.439Z,98846.25
2024-01-18T02:19:00.207Z,98847.59
2024-01-18T02:21:27.359Z,98840.28
2024-01-18T02:24:03.222Z,98837.25
2024-01-18T02:26:30.664Z,98836.81
2024-01-18T02:28:58.390Z,98841.00
2024-01-18T02:31:25.345Z,98830.88
2024-01-18T02:33:52.608Z,98837.00
2024-01-18T02:36:21.199Z,98833.03
2024-01-18T02:38:49.333Z,98837.75
2024-01-18T02:41:15.900Z,98834.91
2024-01-18T02:43:42.709Z,98833.97
2024-01-18T02:46:09.082Z,98839.47
2024-01-18T02:48:35.659Z,98843.44
2024-01-18T02:51:02.302Z,98847.63
2024-01-18T02:53:28.666Z,98839.16
2024-01-18T02:55:55.399Z,98844.38
2024-01-18T02:58:21.765Z,98843.69
2024-01-18T03:00:48.702Z,98846.25
2024-01-18T03:03:15.525Z,98845.91
2024-01-18T03:05:42.059Z,98849.28
2024-01-18T03:08:08.596Z,98847.56
2024-01-18T03:10:35.035Z,98851.97
2024-01-18T03:13:01.396Z,98852.34
2024-01-18T03:15:27.804Z,98835.81
2024-01-18T03:17:54.279Z,98843.22
2024-01-18T03:20:20.686Z,98843.53
2024-01-18T03:22:47.076Z,98853.41
2024-01-18T03:25:13.628Z,98855.94
2024-01-18T03:27:40.486Z,98851.06
2024-01-18T03:30:08.767Z,98862.69
2024-01-18T03:32:35.218Z,98865.91
2024-01-18T03:35:02.171Z,98872.88
2024-01-18T03:37:28.535Z,98871.97
2024-01-18T03:39:54.902Z,98867.03
2024-01-18T03:42:21.322Z,98856.75
2024-01-18T03:44:47.726Z,98854.25
2024-01-18T03:47:14.094Z,98862.75
2024-01-18T03:49:43.119Z,98860.38
2024-01-18T03:52:13.484Z,98854.94
2024-01-18T03:54:42.860Z,98868.69
2024-01-18T03:57:09.334Z,98864.56
2024-01-18T03:59:35.719Z,98869.28
2024-01-18T04:02:02.160Z,98874.53
2024-01-18T04:04:28.614Z,98874.09
2024-01-18T04:06:55.036Z,98869.91
2024-01-18T04:09:21.550Z,98869.53
2024-01-18T04:11:48.046Z,98875.81
2024-01-18T04:14:14.400Z,98863.44
2024-01-18T04:16:42.079Z,98883.09
2024-01-18T04:19:10.053Z,98896.31
2024-01-18T04:21:36.868Z,98893.59
2024-01-18T04:24:03.500Z,98896.09
2024-01-18T04:26:32.218Z,98904.56
2024-01-18T04:28:58.992Z,98914.59
2024-01-18T04:31:25.381Z,98905.25
2024-01-18T04:33:52.016Z,98903.69
2024-01-18T04:36:18.520Z,98918.84
2024-01-18T04:38:44.888Z,98918.59
2024-01-18T04:41:11.268Z,98923.88
2024-01-18T04:43:37.693Z,98916.38
2024-01-18T04:46:05.353Z,98912.16
2024-01-18T04:48:32.508Z,98919.81
2024-01-18T04:50:59.576Z,98922.59
2024-01-18T04:53:26.109Z,98924.94
2024-01-18T04:55:52.595Z,98931.59
2024-01-18T04:58:19.076Z,98932.28
2024-01-18T05:00:45.751Z,98937.63
2024-01-18T05:03:12.310Z,98931.88
2024-01-18T05:05:39.117Z,98952.59
2024-01-18T05:08:05.740Z,98952.13
2024-01-18T05:10:32.188Z,98944.69
2024-01-18T05:12:58.535Z,98963.22
2024-01-18T05:15:26.313Z,98950.00
2024-01-18T05:17:52.848Z,98961.22
2024-01-18T05:20:19.295Z,98959.13
2024-01-18T05:22:45.801Z,98962.16
2024-01-18T05:25:12.267Z,98965.94
2024-01-18T05:27:38.976Z,98963.44
2024-01-18T05:30:06.318Z,98956.69
2024-01-18T05:32:32.934Z,98957.97
2024-01-18T05:34:59.436Z,98970.63
2024-01-18T05:37:25.868Z,98968.56
2024-01-18T05:39:52.872Z,98976.84
2024-01-18T05:42:20.045Z,98984.34
2024-01-18T05:44:47.505Z,98973.34
2024-01-18T05:47:14.384Z,98997.81
2024-01-18T05:49:40.969Z,99001.41
2024-01-18T05:52:08.158Z,98996.53
2024-01-18T05:54:34.772Z,98986.88
2024-01-18T05:57:03.039Z,98998.91
2024-01-18T05:59:29.682Z,99011.97
2024-01-18T06:01:56.402Z,99010.28
2024-01-18T06:04:23.192Z,99020.91
2024-01-18T06:06:50.934Z,99015.63
2024-01-18T06:09:18.095Z,99013.03
2024-01-18T06:11:45.341Z,99018.25
2024-01-18T06:14:12.444Z,99017.19
2024-01-18T06:16:39.434Z,99019.75
2024-01-18T06:19:06.396Z,99030.13
2024-01-18T06:21:34.550Z,99030.41
2024-01-18T06:24:02.557Z,99035.84
2024-01-18T06:26:28.981Z,99032.53
2024-01-18T06:28:55.337Z,99034.16
2024-01-18T06:31:27.358Z,99043.06
2024-01-18T06:33:54.657Z,99047.91
2024-01-18T06:36:23.411Z,99047.50
2024-01-18T06:38:52.496Z,99061.00
2024-01-18T06:41:20.843Z,99071.44
2024-01-18T06:43:47.539Z,99072.78
2024-01-18T06:46:17.129Z,99066.31
2024-01-18T06:48:44.177Z,99080.59
2024-01-18T06:51:15.496Z,99090.84
2024-01-18T06:53:41.975Z,99088.84
2024-01-18T06:56:17.914Z,99094.19
2024-01-18T06:58:44.950Z,99088.34
2024-01-18T07:01:14.584Z,99091.38
2024-01-18T07:03:42.514Z,99092.72
2024-01-18T07:06:10.406Z,99093.78
2024-01-18T07:08:40.243Z,99084.91
2024-01-18T07:11:06.979Z,99094.28
2024-01-18T07:13:33.610Z,99083.63
2024-01-18T07:16:02.556Z,99099.25
2024-01-18T07:18:29.803Z,99103.59
2024-01-18T07:20:56.751Z,99100.13
2024-01-18T07:23:23.145Z,99092.78
2024-01-18T07:25:49.684Z,99087.63
2024-01-18T07:28:16.186Z,99108.91
2024-01-18T07:30:43.218Z,99105.22
2024-01-18T07:33:09.862Z,99107.66
2024-01-18T07:35:36.364Z,99118.50
2024-01-18T07:38:02.751Z,99120.66
2024-01-18T07:40:29.154Z,99120.38
2024-01-18T07:42:55.664Z,99122.44
2024-01-18T07:45:22.259Z,99129.13
2024-01-18T07:47:49.323Z,99131.44
2024-01-18T07:50:29.005Z,99144.06
2024-01-18T07:53:00.883Z,99141.78
2024-01-18T07:55:27.567Z,99140.41
2024-01-18T07:57:54.089Z,99141.03
2024-01-18T08:00:20.644Z,99134.13
2024-01-18T08:02:47.153Z,99150.34
2024-01-18T08:05:14.187Z,99146.66
2024-01-18T08:07:40.857Z,99147.50
2024-01-18T08:10:09.874Z,99141.28
2024-01-18T08:12:37.531Z,99149.91
2024-01-18T08:15:10.025Z,99154.63
2024-01-18T08:17:36.510Z,99159.84
2024-01-18T08:20:05.301Z,99165.66
2024-01-18T08:22:31.720Z,99179.38
2024-01-18T08:24:58.184Z,99167.53
2024-01-18T08:27:25.118Z,99177.38
2024-01-18T08:29:51.717Z,99181.16
2024-01-18T08:32:18.074Z,99185.94
2024-01-18T08:34:45.872Z,99184.44
2024-01-18T08:37:13.190Z,99177.50
2024-01-18T08:39:40.035Z,99188.84
2024-01-18T08:42:06.978Z,99191.72
2024-01-18T08:44:33.417Z,99183.63
2024-01-18T08:47:00.408Z,99194.06
2024-01-18T08:49:27.023Z,99204.09
2024-01-18T08:51:54.159Z,99211.13
2024-01-18T08:54:22.096Z,99208.19
2024-01-18T08:56:49.291Z,99217.22
2024-01-18T08:59:16.129Z,99226.16
2024-01-18T09:01:43.229Z,99242.00
2024-01-18T09:04:09.724Z,99235.50
2024-01-18T09:06:37.913Z,99235.53
2024-01-18T09:09:04.366Z,99239.16
2024-01-18T09:11:31.490Z,99248.44
2024-01-18T09:13:57.897Z,99264.06
2024-01-18T09:16:24.260Z,99269.72
2024-01-18T09:19:01.283Z,99264.56
2024-01-18T09:21:45.079Z,99295.81
2024-01-18T09:24:12.189Z,99286.19
2024-01-18T09:26:38.695Z,99293.84
2024-01-18T09:29:05.087Z,99296.03
2024-01-18T09:31:38.655Z,99311.63
2024-01-18T09:34:09.065Z,99320.19
2024-01-18T09:36:35.513Z,99326.97
2024-01-18T09:39:01.991Z,99312.63
2024-01-18T09:41:30.420Z,99320.22
2024-01-18T09:44:04.244Z,99336.56
2024-01-18T09:46:30.870Z,99320.94
2024-01-18T09:49:02.030Z,99338.69
2024-01-18T09:51:30.693Z,99336.13
2024-01-18T09:53:57.456Z,99339.56
2024-01-18T09:56:26.835Z,99351.34
2024-01-18T09:58:53.707Z,99359.00
2024-01-18T10:01:25.051Z,99363.72
2024-01-18T10:03:51.745Z,99372.28
2024-01-18T10:06:19.401Z,99374.63
2024-01-18T10:08:47.201Z,99388.13
2024-01-18T10:11:13.633Z,99396.72
2024-01-18T10:13:49.115Z,99397.72
2024-01-18T10:16:29.399Z,99404.38
2024-01-18T10:19:01.548Z,99410.44
2024-01-18T10:21:28.400Z,99406.34
2024-01-18T10:23:55.535Z,99406.59
2024-01-18T10:26:23.122Z,99417.28
2024-01-18T10:28:50.085Z,99422.16
2024-01-18T10:31:16.713Z,99424.81
2024-01-18T10:33:43.260Z,99431.22
2024-01-18T10:36:09.776Z,99432.75
2024-01-18T10:38:38.494Z,99434.06
2024-01-18T10:41:06.108Z,99443.75
2024-01-18T10:43:36.757Z,99436.19
2024-01-18T10:46:05.157Z,99444.91
2024-01-18T10:48:32.687Z,99439.28
2024-01-18T10:51:00.110Z,99448.94
2024-01-18T10:53:37.747Z,99449.00
2024-01-18T10:56:04.525Z,99454.78
2024-01-18T10:58:31.890Z,99455.94
2024-01-18T11:00:58.863Z,99462.25
2024-01-18T11:03:25.750Z,99459.81
2024-01-18T11:05:52.952Z,99450.91
2024-01-18T11:08:19.398Z,99463.50
2024-01-18T11:10:49.224Z,99494.31
2024-01-18T11:13:16.576Z,99470.31
2024-01-18T11:15:45.397Z,99487.03
2024-01-18T11:18:13.727Z,99502.56
2024-01-18T11:20:58.778Z,99516.34
2024-01-18T11:23:40.464Z,99506.47
2024-01-18T11:26:09.266Z,99511.22
2024-01-18T11:28:36.486Z,99515.41
2024-01-18T11:31:03.288Z,99511.06
2024-01-18T11:33:32.486Z,99516.91
2024-01-18T11:36:00.111Z,99505.06
2024-01-18T11:38:33.745Z,99518.56
2024-01-18T11:41:11.518Z,99520.84
2024-01-18T11:43:59.023Z,99525.34
2024-01-18T11:46:42.691Z,99532.75
2024-01-18T11:49:10.168Z,99530.63
2024-01-18T11:51:37.670Z,99534.50
2024-01-18T11:54:05.387Z,99547.19
2024-01-18T11:56:39.143Z,99540.22
2024-01-18T11:59:06.301Z,99549.75
2024-01-18T12:01:33.135Z,99554.34
2024-01-18T12:03:59.822Z,99555.53
2024-01-18T12:06:29.584Z,99558.34
2024-01-18T12:08:57.654Z,99562.69
2024-01-18T12:11:24.119Z,99564.31
2024-01-18T12:13:51.831Z,99567.09
2024-01-18T12:16:21.224Z,99571.53
2024-01-18T12:18:47.627Z,99570.97
2024-01-18T12:21:18.055Z,99569.88
2024-01-18T12:23:44.560Z,99570.28
2024-01-18T12:26:11.431Z,99581.28
2024-01-18T12:28:38.132Z,99587.66
2024-01-18T12:31:05.527Z,99590.50
2024-01-18T12:33:33.008Z,99596.56
2024-01-18T12:36:02.247Z,99596.50
2024-01-18T12:38:29.588Z,99596.53
2024-01-18T12:40:56.025Z,99609.66
2024-01-18T12:43:22.387Z,99612.16
2024-01-18T12:45:52.762Z,99623.22
2024-01-18T12:48:20.617Z,99610.19
2024-01-18T12:50:47.588Z,99622.34
2024-01-18T12:53:14.407Z,99622.78
2024-01-18T12:55:41.717Z,99632.59
2024-01-18T12:58:13.634Z,99625.69
2024-01-18T13:00:40.462Z,99635.06
2024-01-18T13:03:12.018Z,99635.28
2024-01-18T13:05:48.777Z,99644.28
2024-01-18T13:08:17.070Z,99652.84
2024-01-18T13:10:45.967Z,99647.91
2024-01-18T13:13:12.441Z,99649.13
2024-01-18T13:15:39.734Z,99650.22
2024-01-18T13:18:12.802Z,99661.84
2024-01-18T13:20:42.540Z,99670.91
2024-01-18T13:23:11.206Z,99660.69
2024-01-18T13:25:37.871Z,99667.22
2024-01-18T13:28:05.434Z,99669.53
2024-01-18T13:30:31.943Z,99671.63
2024-01-18T13:32:59.590Z,99684.41
2024-01-18T13:35:27.174Z,99687.13
2024-01-18T13:37:53.547Z,99702.00
2024-01-18T13:40:19.978Z,99713.06
2024-01-18T13:42:46.379Z,99713.53
2024-01-18T13:45:12.876Z,99720.72
2024-01-18T13:47:39.773Z,99724.38
2024-01-18T13:50:06.648Z,99736.47
2024-01-18T13:52:33.163Z,99737.53
2024-01-18T13:54:59.630Z,99737.56
2024-01-18T13:57:26.550Z,99734.56
2024-01-18T13:59:52.990Z,99739.06
2024-01-18T14:02:20.110Z,99756.47
2024-01-18T14:04:46.940Z,99751.34
2024-01-18T14:07:13.632Z,99758.59
2024-01-18T14:09:41.509Z,99766.47
2024-01-18T14:12:08.082Z,99772.31
2024-01-18T14:14:34.510Z,99781.00
2024-01-18T14:17:00.904Z,99783.78
2024-01-18T14:19:27.414Z,99792.53
2024-01-18T14:21:53.994Z,99810.50
2024-01-18T14:24:20.383Z,99807.59
2024-01-18T14:26:47.398Z,99814.91
2024-01-18T14:29:14.051Z,99827.72
2024-01-18T14:31:42.886Z,99828.91
2024-01-18T14:34:09.377Z,99845.13
2024-01-18T14:36:35.896Z,99857.31
2024-01-18T14:39:04.724Z,99864.22
2024-01-18T14:41:31.393Z,99854.47
2024-01-18T14:43:57.799Z,99879.88
2024-01-18T14:46:24.275Z,99878.59
2024-01-18T14:48:50.774Z,99883.50
2024-01-18T14:51:18.295Z,99883.03
2024-01-18T14:53:45.707Z,99889.31
2024-01-18T14:56:12.052Z,99903.59
2024-01-18T14:58:38.418Z,99903.19
2024-01-18T15:01:05.022Z,99903.19
2024-01-18T15:03:31.865Z,99911.16
2024-01-18T15:05:58.346Z,99928.56
2024-01-18T15:08:25.019Z,99925.75
2024-01-18T15:10:51.379Z,99925.00
2024-01-18T15:13:19.500Z,99935.16
2024-01-18T15:15:46.633Z,99939.28
2024-01-18T15:18:13.080Z,99940.56
2024-01-18T15:20:39.658Z,99947.38
2024-01-18T15:23:07.641Z,99943.59
2024-01-18T15:25:34.299Z,99952.25
2024-01-18T15:28:00.779Z,99964.69
2024-01-18T15:30:27.289Z,99957.91
2024-01-18T15:32:53.796Z,99972.53
2024-01-18T15:35:20.380Z,99973.72
2024-01-18T15:37:47.578Z,99983.88
2024-01-18T15:40:14.054Z,99991.72
2024-01-18T15:42:40.534Z,99996.19
2024-01-18T15:45:09.453Z,99998.06
2024-01-18T15:47:42.201Z,100014.22
2024-01-18T15:50:09.352Z,100018.53
2024-01-18T15:52:36.628Z,100021.63
2024-01-18T15:55:03.854Z,100024.34
2024-01-18T15:57:30.466Z,100028.09
2024-01-18T15:59:57.501Z,100036.13
2024-01-18T16:02:24.897Z,100036.41
2024-01-18T16:04:51.569Z,100051.56
2024-01-18T16:07:18.009Z,100059.97
2024-01-18T16:09:44.609Z,100060.72
2024-01-18T16:12:11.372Z,100069.31
2024-01-18T16:14:44.017Z,100077.91
2024-01-18T16:17:10.870Z,100074.69
2024-01-18T16:19:37.322Z,100091.75
2024-01-18T16:22:03.841Z,100093.53
2024-01-18T16:24:31.082Z,100099.78
2024-01-18T16:26:57.711Z,100111.19
2024-01-18T16:29:28.863Z,100109.94
2024-01-18T16:31:57.000Z,100122.69
2024-01-18T16:34:23.482Z,100130.47
2024-01-18T16:36:49.984Z,100126.66
2024-01-18T16:39:16.420Z,100135.03
2024-01-18T16:41:43.521Z,100138.09
2024-01-18T16:44:09.968Z,100144.53
2024-01-18T16:46:36.470Z,100149.56
2024-01-18T16:49:06.036Z,100147.59
2024-01-18T16:51:32.916Z,100161.31
2024-01-18T16:53:59.371Z,100166.69
2024-01-18T16:56:25.826Z,100174.50
2024-01-18T16:58:52.249Z,100182.91
2024-01-18T17:01:19.457Z,100188.38
2024-01-18T17:03:45.919Z,100197.06
2024-01-18T17:06:14.684Z,100202.41
2024-01-18T17:08:41.158Z,100208.16
2024-01-18T17:11:16.722Z,100214.84
2024-01-18T17:13:46.899Z,100223.50
2024-01-18T17:16:13.277Z,100231.88
2024-01-18T17:18:39.645Z,100231.63
2024-01-18T17:21:06.150Z,100227.16
2024-01-18T17:23:32.519Z,100245.69
2024-01-18T17:25:58.906Z,100250.44
2024-01-18T17:28:25.261Z,100256.91
2024-01-18T17:30:52.503Z,100257.53
2024-01-18T17:33:19.237Z,100262.78
2024-01-18T17:35:45.708Z,100268.66
2024-01-18T17:38:12.164Z,100272.03
2024-01-18T17:40:38.525Z,100278.44
2024-01-18T17:43:05.057Z,100283.84
2024-01-18T17:45:32.828Z,100289.25
2024-01-18T17:47:59.335Z,100293.13
2024-01-18T17:50:25.899Z,100294.00
2024-01-18T17:52:52.404Z,100293.88
2024-01-18T17:55:18.776Z,100296.47
2024-01-18T17:57:45.134Z,100300.44
2024-01-18T18:00:11.895Z,100309.44
2024-01-18T18:02:38.986Z,100316.72
2024-01-18T18:05:06.000Z,100314.97
2024-01-18T18:07:32.416Z,100313.56
2024-01-18T18:09:58.892Z,100322.16
2024-01-18T18:12:25.587Z,100329.16
2024-01-18T18:14:52.077Z,100329.69
2024-01-18T18:17:18.684Z,100335.22
2024-01-18T18:19:45.189Z,100333.97
2024-01-18T18:22:11.622Z,100333.25
2024-01-18T18:24:38.053Z,100326.38
2024-01-18T18:27:04.613Z,100330.06
2024-01-18T18:29:31.246Z,100336.59
2024-01-18T18:31:57.674Z,100333.84
2024-01-18T18:34:29.310Z,100346.91
2024-01-18T18:36:56.339Z,100351.56
2024-01-18T18:39:22.817Z,100355.59
2024-01-18T18:41:49.340Z,100360.06
2024-01-18T18:44:15.787Z,100367.66
2024-01-18T18:46:42.238Z,100368.00
2024-01-18T18:49:08.592Z,100374.94
2024-01-18T18:51:35.190Z,100384.53
2024-01-18T18:54:01.582Z,100391.78
2024-01-18T18:56:27.992Z,100394.91
2024-01-18T18:58:54.356Z,100401.75
2024-01-18T19:01:20.803Z,100406.34
2024-01-18T19:03:48.280Z,100411.47
2024-01-18T19:06:15.015Z,100429.81
2024-01-18T19:08:41.512Z,100423.16
2024-01-18T19:11:08.022Z,100440.72
2024-01-18T19:13:35.147Z,100446.13
2024-01-18T19:16:01.639Z,100446.13
2024-01-18T19:18:28.157Z,100446.13
2024-01-18T19:20:54.721Z,100444.31
2024-01-18T19:23:21.215Z,100450.69
2024-01-18T19:25:48.287Z,100457.50
2024-01-18T19:28:14.676Z,100470.75
2024-01-18T19:30:41.028Z,100472.81
2024-01-18T19:33:07.588Z,100475.63
2024-01-18T19:35:34.169Z,100483.25
2024-01-18T19:38:04.530Z,100484.25
2024-01-18T19:40:31.807Z,100480.03
2024-01-18T19:42:58.262Z,100485.88
2024-01-18T19:45:26.083Z,100488.19
2024-01-18T19:47:52.492Z,100493.56
2024-01-18T19:50:18.913Z,100497.41
2024-01-18T19:52:45.295Z,100505.56
2024-01-18T19:55:11.668Z,100513.47
2024-01-18T19:57:40.971Z,100520.88
2024-01-18T20:00:10.242Z,100515.53
2024-01-18T20:02:37.247Z,100521.25
2024-01-18T20:05:04.037Z,100525.09
2024-01-18T20:07:34.587Z,100530.34
2024-01-18T20:10:01.723Z,100537.22
2024-01-18T20:12:31.003Z,100535.56
2024-01-18T20:14:57.543Z,100540.84
2024-01-18T20:17:24.377Z,100554.91
2024-01-18T20:19:50.871Z,100559.00
2024-01-18T20:22:18.163Z,100556.78
2024-01-18T20:24:47.686Z,100567.50
2024-01-18T20:27:15.722Z,100570.41
2024-01-18T20:29:43.532Z,100578.03
2024-01-18T20:32:10.597Z,100580.72
2024-01-18T20:34:41.365Z,100589.03
2024-01-18T20:37:08.636Z,100592.44
2024-01-18T20:39:36.031Z,100594.94
2024-01-18T20:42:04.177Z,100600.00
2024-01-18T20:44:32.186Z,100608.19
2024-01-18T20:46:58.880Z,100615.28
2024-01-18T20:49:25.470Z,100615.19
2024-01-18T20:51:51.958Z,100617.09
2024-01-18T20:54:18.400Z,100623.75
2024-01-18T20:56:45.849Z,100629.75
2024-01-18T20:59:12.334Z,100639.22
2024-01-18T21:01:38.745Z,100643.88
2024-01-18T21:04:05.138Z,100650.84
2024-01-18T21:06:31.625Z,100655.50
2024-01-18T21:08:58.411Z,100654.94
2024-01-18T21:11:24.932Z,100662.13
2024-01-18T21:13:51.387Z,100656.19
2024-01-18T21:16:17.751Z,100669.50
2024-01-18T21:18:44.304Z,100672.31
2024-01-18T21:23:37.610Z,100684.16
2024-01-18T21:26:03.998Z,100692.91
2024-01-18T21:28:30.374Z,100688.25
2024-01-18T21:30:57.044Z,100689.09
2024-01-18T21:33:23.490Z,100695.31
2024-01-18T21:35:49.955Z,100709.66
2024-01-18T21:38:19.249Z,100711.13
2024-01-18T21:40:46.175Z,100719.19
2024-01-18T21:43:12.911Z,100717.59
2024-01-18T21:45:39.334Z,100721.84
2024-01-18T21:48:06.497Z,100714.94
2024-01-18T21:50:33.382Z,100714.94
2024-01-18T21:52:59.981Z,100719.31
2024-01-18T21:55:26.594Z,100725.19
2024-01-18T21:57:53.284Z,100729.31
2024-01-18T22:00:19.814Z,100731.34
2024-01-18T22:02:48.126Z,100730.72
2024-01-18T22:05:14.695Z,100723.72
2024-01-18T22:07:41.925Z,100735.13
2024-01-18T22:10:08.656Z,100746.41
2024-01-18T22:12:35.344Z,100746.13
2024-01-18T22:15:01.706Z,100750.06
2024-01-18T22:17:28.176Z,100757.81
2024-01-18T22:20:01.464Z,100758.25
2024-01-18T22:22:31.679Z,100756.66
2024-01-18T22:24:59.091Z,100761.69
2024-01-18T22:27:27.629Z,100769.63
2024-01-18T22:29:54.501Z,100775.00
2024-01-18T22:32:20.934Z,100785.59
2024-01-18T22:34:48.709Z,100782.94
2024-01-18T22:37:16.341Z,100787.97
2024-01-18T22:39:42.749Z,100792.94
2024-01-18T22:42:09.117Z,100797.19
2024-01-18T22:44:35.542Z,100799.69
2024-01-18T22:47:01.955Z,100796.72
2024-01-18T22:49:28.439Z,100799.09
2024-01-18T22:51:54.889Z,100797.50
2024-01-18T22:54:21.564Z,100804.84
2024-01-18T22:56:47.972Z,100810.75
2024-01-18T22:59:14.411Z,100811.03
2024-01-18T23:01:40.800Z,100824.03
2024-01-18T23:04:07.232Z,100818.41
2024-01-18T23:06:33.806Z,100823.06
2024-01-18T23:09:00.815Z,100825.84
2024-01-18T23:11:27.337Z,100826.97
2024-01-18T23:13:54.142Z,100824.09
2024-01-18T23:16:21.207Z,100826.50
2024-01-18T23:18:48.028Z,100834.19
2024-01-18T23:21:14.435Z,100840.59
2024-01-18T23:23:40.774Z,100849.97
2024-01-18T23:26:07.346Z,100849.47
2024-01-18T23:28:33.888Z,100847.06
2024-01-18T23:31:00.396Z,100849.38
2024-01-18T23:33:26.815Z,100861.97
2024-01-18T23:35:53.232Z,100867.00
2024-01-18T23:38:19.606Z,100873.88
2024-01-18T23:40:46.004Z,100869.34
2024-01-18T23:43:12.369Z,100878.00
2024-01-18T23:45:38.762Z,100879.63
2024-01-18T23:48:05.582Z,100884.16
2024-01-18T23:50:32.155Z,100889.59
2024-01-18T23:52:58.593Z,100888.06
2024-01-18T23:55:24.953Z,100886.66
2024-01-18T23:57:51.319Z,100884.75
